Time;durP1;ratioP1;P1;durP2;ratioP2;P2;SDS_P1;SDS_P2;PMS_P1;PMS_P2;Temp;Humidity;BMP_temperature;BMP_pressure;BME280_temperature;BME280_humidity;BME280_pressure;Samples;Min_cycle;Max_cycle;Signal;HPM_P1;HPM_P2
2022/10/11 00:00:37;;;;;;;14.68;3.20;;;9.00;99.90;;;;;;5096558;28;20067;-74
2022/10/11 00:03:03;;;;;;;15.18;3.10;;;9.00;99.90;;;;;;5115091;28;20160;-75
2022/10/11 00:05:29;;;;;;;13.07;3.20;;;9.00;99.90;;;;;;5115024;28;20047;-74
2022/10/11 00:07:54;;;;;;;22.30;3.13;;;9.00;99.90;;;;;;5115106;28;20039;-75
2022/10/11 00:10:21;;;;;;;15.13;3.22;;;10.10;99.90;;;;;;5103867;28;20039;-74
2022/10/11 00:12:47;;;;;;;12.77;2.85;;;9.60;99.90;;;;;;5093265;28;20048;-74
2022/10/11 00:15:19;;;;;;;13.30;2.80;;;8.90;99.90;;;;;;5094803;28;20074;-74
2022/10/11 00:17:45;;;;;;;11.90;3.00;;;9.00;99.90;;;;;;5076035;28;20036;-74
2022/10/11 00:20:11;;;;;;;14.10;3.38;;;8.90;99.90;;;;;;5076071;28;20048;-74
2022/10/11 00:22:38;;;;;;;17.70;3.70;;;8.80;99.90;;;;;;5101697;28;20104;-74
2022/10/11 00:25:09;;;;;;;16.85;3.33;;;8.80;99.90;;;;;;5096264;28;20404;-74
2022/10/11 00:27:35;;;;;;;10.07;2.83;;;9.20;99.90;;;;;;5112252;28;20100;-74
2022/10/11 00:30:01;;;;;;;11.50;2.50;;;8.80;99.90;;;;;;5087985;28;20036;-75
2022/10/11 00:32:27;;;;;;;12.75;3.00;;;8.80;99.90;;;;;;5093727;28;20185;-74
2022/10/11 00:34:54;;;;;;;13.27;3.00;;;8.80;99.90;;;;;;5093809;28;20091;-75
2022/10/11 00:37:20;;;;;;;12.90;2.95;;;8.80;99.90;;;;;;5093598;28;20397;-74
2022/10/11 00:39:46;;;;;;;14.52;2.70;;;8.80;99.90;;;;;;5075836;28;20036;-74
2022/10/11 00:42:16;;;;;;;15.93;2.85;;;8.80;99.90;;;;;;5112046;28;20071;-74
2022/10/11 00:44:46;;;;;;;16.05;2.97;;;8.80;99.90;;;;;;5105583;28;20044;-74
2022/10/11 00:47:16;;;;;;;13.00;3.13;;;8.80;99.90;;;;;;5079510;28;20369;-74
2022/10/11 00:49:45;;;;;;;14.45;3.00;;;8.80;99.90;;;;;;5109715;28;20487;-74
2022/10/11 00:52:14;;;;;;;12.75;2.85;;;10.30;99.90;;;;;;5113656;28;20039;-74
2022/10/11 00:54:42;;;;;;;13.68;3.25;;;8.70;99.90;;;;;;5114438;28;20138;-74
2022/10/11 00:57:14;;;;;;;16.92;3.25;;;8.70;99.90;;;;;;5095835;28;20047;-74
2022/10/11 00:59:46;;;;;;;13.20;2.78;;;8.70;99.90;;;;;;5102500;28;20097;-74
2022/10/11 01:02:13;;;;;;;12.52;3.47;;;8.70;99.90;;;;;;5093211;28;20050;-74
2022/10/11 01:04:39;;;;;;;10.88;2.50;;;8.70;99.90;;;;;;5098664;28;20031;-74
2022/10/11 01:07:05;;;;;;;14.52;2.90;;;8.70;99.90;;;;;;5113744;28;20047;-75
2022/10/11 01:09:31;;;;;;;14.10;2.53;;;8.90;99.90;;;;;;5095841;28;20483;-74
2022/10/11 01:12:00;;;;;;;12.65;2.95;;;8.70;99.90;;;;;;5095340;28;20043;-74
2022/10/11 01:15:07;;;;;;;16.80;3.08;;;8.60;99.90;;;;;;5113791;28;20047;-74
2022/10/11 01:17:44;;;;;;;13.88;2.90;;;8.70;99.90;;;;;;5095121;28;20045;-74
2022/10/11 01:20:25;;;;;;;13.98;2.85;;;8.60;99.90;;;;;;5112594;28;20079;-74
2022/10/11 01:23:22;;;;;;;12.48;3.13;;;8.60;99.90;;;;;;5112924;28;20043;-74
2022/10/11 01:26:35;;;;;;;13.23;3.03;;;8.60;99.90;;;;;;5088054;28;20040;-74
2022/10/11 01:29:28;;;;;;;11.80;3.28;;;8.60;99.90;;;;;;5075215;28;20048;-74
2022/10/11 01:32:14;;;;;;;22.15;3.28;;;8.60;99.90;;;;;;5094178;28;20100;-74
2022/10/11 01:34:46;;;;;;;10.68;2.88;;;8.70;99.90;;;;;;5095161;28;20051;-74
2022/10/11 01:37:39;;;;;;;17.15;3.65;;;8.60;99.90;;;;;;5097871;28;20042;-74
2022/10/11 01:40:13;;;;;;;12.35;2.95;;;8.50;99.90;;;;;;5068255;28;20526;-75
2022/10/11 01:42:41;;;;;;;11.45;3.15;;;8.60;99.90;;;;;;5078046;28;20040;-74
2022/10/11 01:45:09;;;;;;;11.15;3.72;;;8.60;99.90;;;;;;5094831;28;20079;-75
2022/10/11 01:47:37;;;;;;;16.40;4.03;;;8.60;99.90;;;;;;5064493;28;20127;-74
2022/10/11 01:50:03;;;;;;;10.85;3.58;;;8.60;99.90;;;;;;5103138;28;20471;-74
2022/10/11 01:52:33;;;;;;;16.77;3.65;;;8.60;99.90;;;;;;5093560;28;20048;-74
2022/10/11 01:55:31;;;;;;;13.93;2.75;;;8.60;99.90;;;;;;5102142;28;20035;-74
2022/10/11 01:58:17;;;;;;;12.38;2.78;;;8.60;99.90;;;;;;5090095;28;20055;-74
2022/10/11 02:00:57;;;;;;;16.38;2.97;;;8.50;99.90;;;;;;5100679;28;20121;-74
2022/10/11 02:03:43;;;;;;;18.45;3.30;;;8.60;99.90;;;;;;5099813;28;20419;-74
2022/10/11 02:06:22;;;;;;;14.90;3.25;;;8.50;99.90;;;;;;5093955;28;20069;-74
2022/10/11 02:09:02;;;;;;;10.27;3.00;;;8.60;99.90;;;;;;5092768;28;20044;-75
2022/10/11 02:11:31;;;;;;;15.30;2.97;;;8.60;99.90;;;;;;5091953;28;20044;-74
2022/10/11 02:14:14;;;;;;;14.38;2.60;;;8.60;99.90;;;;;;5057561;28;20044;-74
2022/10/11 02:16:49;;;;;;;16.58;2.70;;;8.50;99.90;;;;;;5104582;28;20400;-74
2022/10/11 02:19:19;;;;;;;14.95;2.85;;;8.50;99.90;;;;;;5112899;28;20071;-74
2022/10/11 02:21:51;;;;;;;17.85;3.28;;;8.50;99.90;;;;;;5090362;28;20044;-74
2022/10/11 02:24:24;;;;;;;15.90;3.58;;;8.50;99.90;;;;;;5092082;28;20075;-74
2022/10/11 02:26:53;;;;;;;17.10;2.90;;;8.50;99.90;;;;;;5091743;28;20511;-74
2022/10/11 02:29:20;;;;;;;12.50;2.55;;;8.50;99.90;;;;;;5092239;28;20485;-74
2022/10/11 02:31:48;;;;;;;15.60;2.50;;;8.50;99.90;;;;;;5091545;28;20481;-74
2022/10/11 02:34:36;;;;;;;13.13;2.67;;;8.50;99.90;;;;;;5091025;28;20048;-74
2022/10/11 02:37:15;;;;;;;16.67;3.17;;;8.50;99.90;;;;;;5091821;28;20501;-74
2022/10/11 02:39:59;;;;;;;12.90;2.80;;;8.40;99.90;;;;;;5095752;28;20075;-74
2022/10/11 02:42:32;;;;;;;11.25;2.80;;;8.30;99.90;;;;;;5095786;28;20126;-74
2022/10/11 02:45:15;;;;;;;17.27;3.40;;;8.30;99.90;;;;;;5084277;28;20040;-74
2022/10/11 02:47:42;;;;;;;14.73;2.67;;;8.30;99.90;;;;;;5095818;28;20051;-74
2022/10/11 02:50:10;;;;;;;9.70;2.55;;;8.30;99.90;;;;;;5096122;28;20036;-74
2022/10/11 02:52:36;;;;;;;15.02;2.97;;;9.20;99.90;;;;;;5077851;28;20040;-74
2022/10/11 02:55:02;;;;;;;14.70;2.80;;;8.40;99.90;;;;;;5095044;28;20074;-74
2022/10/11 02:57:27;;;;;;;16.75;2.72;;;8.40;99.90;;;;;;5094214;28;20044;-74
2022/10/11 02:59:53;;;;;;;15.38;3.13;;;9.50;99.90;;;;;;5095744;28;20047;-74
2022/10/11 03:02:19;;;;;;;12.07;2.63;;;9.30;99.90;;;;;;5103356;28;20499;-74
2022/10/11 03:04:44;;;;;;;13.07;2.63;;;8.40;99.90;;;;;;5078160;28;20086;-74
2022/10/11 03:07:10;;;;;;;10.85;2.53;;;8.30;99.90;;;;;;5077762;28;20040;-74
2022/10/11 03:09:36;;;;;;;10.80;2.50;;;8.20;99.90;;;;;;5077772;28;20051;-75
2022/10/11 03:12:01;;;;;;;17.20;2.90;;;8.20;99.90;;;;;;5095443;28;20459;-74
2022/10/11 03:14:27;;;;;;;14.57;3.30;;;8.30;99.90;;;;;;5077609;28;20481;-74
2022/10/11 03:16:52;;;;;;;13.50;2.83;;;8.20;99.90;;;;;;5108683;28;20071;-74
2022/10/11 03:19:18;;;;;;;16.10;2.83;;;8.50;99.90;;;;;;5116221;28;20075;-74
2022/10/11 03:21:44;;;;;;;11.57;2.70;;;8.20;99.90;;;;;;5099777;28;20223;-74
2022/10/11 03:24:09;;;;;;;13.80;2.70;;;8.20;99.90;;;;;;5095810;28;20044;-74
2022/10/11 03:26:35;;;;;;;14.23;2.80;;;8.20;99.90;;;;;;5060585;28;20040;-74
2022/10/11 03:29:01;;;;;;;18.55;3.20;;;8.20;99.90;;;;;;5077277;28;20048;-74
2022/10/11 03:31:26;;;;;;;12.50;2.95;;;8.50;99.90;;;;;;5095031;28;20511;-74
2022/10/11 03:33:52;;;;;;;20.98;3.72;;;8.10;99.90;;;;;;5094513;28;20130;-74
2022/10/11 03:36:18;;;;;;;13.57;2.55;;;8.00;99.90;;;;;;5075668;28;20051;-74
2022/10/11 03:38:43;;;;;;;11.88;2.78;;;9.00;99.90;;;;;;5094302;28;20040;-74
2022/10/11 03:41:09;;;;;;;16.50;2.78;;;7.90;99.90;;;;;;5075201;28;20072;-74
2022/10/11 03:43:35;;;;;;;16.90;3.05;;;7.90;99.90;;;;;;5094306;28;20036;-74
2022/10/11 03:46:00;;;;;;;12.63;2.42;;;7.90;99.90;;;;;;5075541;28;20127;-74
2022/10/11 03:48:26;;;;;;;11.45;2.90;;;7.90;99.90;;;;;;5093996;28;20036;-74
2022/10/11 03:50:52;;;;;;;12.38;2.80;;;8.00;99.90;;;;;;5075190;28;20036;-74
2022/10/11 03:53:18;;;;;;;14.00;3.78;;;8.00;99.90;;;;;;5075801;28;20042;-74
2022/10/11 03:55:44;;;;;;;10.02;2.70;;;8.20;99.90;;;;;;5075447;28;20048;-74
2022/10/11 03:58:10;;;;;;;15.73;3.05;;;8.00;99.90;;;;;;5075778;28;20461;-74
2022/10/11 04:00:36;;;;;;;13.18;2.70;;;8.00;99.90;;;;;;5075552;28;20127;-74
2022/10/11 04:03:04;;;;;;;14.13;2.88;;;7.90;99.90;;;;;;5093447;28;20480;-74
2022/10/11 04:05:30;;;;;;;16.70;2.55;;;8.00;99.90;;;;;;5075362;28;20131;-75
2022/10/11 04:07:56;;;;;;;13.27;3.13;;;8.40;99.90;;;;;;5093648;28;20118;-74
2022/10/11 04:10:21;;;;;;;11.52;2.80;;;9.20;99.90;;;;;;5093180;28;20503;-74
2022/10/11 04:12:47;;;;;;;15.60;2.88;;;9.10;99.90;;;;;;5093106;28;20047;-74
2022/10/11 04:15:12;;;;;;;14.15;3.05;;;7.90;99.90;;;;;;5077630;28;20063;-74
2022/10/11 04:17:39;;;;;;;9.77;2.83;;;9.00;99.90;;;;;;5094737;28;20040;-74
2022/10/11 04:20:05;;;;;;;14.07;3.03;;;8.00;99.90;;;;;;5113679;28;20039;-73
2022/10/11 04:22:32;;;;;;;12.18;2.75;;;7.90;99.90;;;;;;5113598;28;20054;-74
2022/10/11 04:24:57;;;;;;;19.42;3.30;;;7.90;99.90;;;;;;5095472;28;20051;-74
2022/10/11 04:27:26;;;;;;;14.35;2.60;;;8.40;99.90;;;;;;5113428;28;20492;-74
2022/10/11 04:29:51;;;;;;;17.45;3.17;;;8.40;99.90;;;;;;5113805;28;20379;-74
2022/10/11 04:32:17;;;;;;;14.27;2.70;;;7.90;99.90;;;;;;5112201;28;20036;-74
2022/10/11 04:34:42;;;;;;;19.77;2.87;;;7.90;99.90;;;;;;5057784;28;1086335;-74
2022/10/11 04:37:08;;;;;;;14.98;3.30;;;7.80;99.90;;;;;;5096216;28;20778;-74
2022/10/11 04:39:34;;;;;;;14.95;2.75;;;8.50;99.90;;;;;;5114709;28;20088;-74
2022/10/11 04:41:59;;;;;;;12.73;2.78;;;7.80;99.90;;;;;;5113966;28;20044;-74
2022/10/11 04:44:25;;;;;;;11.73;2.95;;;7.80;99.90;;;;;;5095853;28;20059;-74
2022/10/11 04:46:50;;;;;;;12.23;2.90;;;7.80;99.90;;;;;;5092290;28;20506;-74
2022/10/11 04:49:16;;;;;;;15.20;3.20;;;7.80;99.90;;;;;;5093515;28;20036;-74
2022/10/11 04:51:42;;;;;;;17.00;3.38;;;7.90;99.90;;;;;;5093203;28;20051;-74
2022/10/11 04:54:07;;;;;;;14.98;2.92;;;7.90;99.90;;;;;;5093893;28;20040;-74
2022/10/11 04:56:33;;;;;;;12.30;2.75;;;7.90;99.90;;;;;;5058863;28;20040;-74
2022/10/11 04:58:58;;;;;;;15.02;3.10;;;8.50;99.90;;;;;;5093836;28;20036;-74
2022/10/11 05:01:24;;;;;;;19.40;2.95;;;7.80;99.90;;;;;;5092284;28;20190;-74
2022/10/11 05:03:50;;;;;;;14.88;2.88;;;7.80;99.90;;;;;;5075457;28;20131;-73
2022/10/11 05:06:15;;;;;;;17.38;2.85;;;7.90;99.90;;;;;;5093197;28;20531;-74
2022/10/11 05:08:41;;;;;;;18.27;2.92;;;7.90;99.90;;;;;;5075474;28;20079;-74
2022/10/11 05:11:11;;;;;;;13.60;2.92;;;7.80;99.90;;;;;;5074979;28;20058;-74
2022/10/11 05:13:37;;;;;;;13.68;3.55;;;7.80;99.90;;;;;;5092892;28;20488;-76
2022/10/11 05:16:03;;;;;;;16.10;3.03;;;7.80;99.90;;;;;;5086457;28;20094;-74
2022/10/11 05:18:29;;;;;;;12.32;3.05;;;7.90;99.90;;;;;;5113540;28;20039;-76
2022/10/11 05:21:03;;;;;;;11.27;2.78;;;7.90;99.90;;;;;;5083476;28;20670;-75
2022/10/11 05:23:30;;;;;;;19.23;3.25;;;7.90;99.90;;;;;;5075125;28;20043;-73
2022/10/11 05:25:56;;;;;;;15.63;2.97;;;7.80;99.90;;;;;;5092966;28;20075;-73
2022/10/11 05:28:22;;;;;;;14.43;2.63;;;7.80;99.90;;;;;;5093559;28;20097;-73
2022/10/11 05:30:48;;;;;;;11.07;2.90;;;8.90;99.90;;;;;;5092707;28;20036;-73
2022/10/11 05:33:13;;;;;;;12.18;2.90;;;7.80;99.90;;;;;;5074307;28;20478;-74
2022/10/11 05:35:39;;;;;;;15.88;3.53;;;7.80;99.90;;;;;;5092749;28;20098;-74
2022/10/11 05:38:04;;;;;;;15.77;3.20;;;7.80;99.90;;;;;;5093577;28;20044;-74
2022/10/11 05:40:30;;;;;;;15.38;3.38;;;7.80;99.90;;;;;;5092836;28;20420;-75
2022/10/11 05:42:56;;;;;;;13.73;3.13;;;7.90;99.90;;;;;;5073162;28;20067;-74
2022/10/11 05:45:21;;;;;;;16.90;3.35;;;8.10;99.90;;;;;;5056116;28;20036;-74
2022/10/11 05:47:47;;;;;;;11.63;2.58;;;7.80;99.90;;;;;;5097585;28;20454;-74
2022/10/11 05:50:13;;;;;;;10.93;2.60;;;7.90;99.90;;;;;;5110989;28;20403;-74
2022/10/11 05:52:38;;;;;;;16.25;3.08;;;7.80;99.90;;;;;;5092003;28;20043;-74
2022/10/11 05:55:04;;;;;;;14.38;2.80;;;7.90;99.90;;;;;;5097762;28;20419;-74
2022/10/11 05:57:30;;;;;;;11.90;2.65;;;7.90;99.90;;;;;;5092072;28;20036;-74
2022/10/11 05:59:56;;;;;;;10.48;3.05;;;7.90;99.90;;;;;;5092417;28;20493;-74
2022/10/11 06:02:21;;;;;;;14.90;2.53;;;8.60;99.90;;;;;;5091854;28;20094;-76
2022/10/11 06:04:47;;;;;;;13.20;3.00;;;8.40;99.90;;;;;;5073980;28;20048;-74
2022/10/11 06:07:13;;;;;;;14.85;3.75;;;8.40;99.90;;;;;;5091808;28;20114;-74
2022/10/11 06:09:38;;;;;;;12.40;3.03;;;8.00;99.90;;;;;;5076517;28;20119;-75
2022/10/11 06:12:04;;;;;;;14.27;3.00;;;8.00;99.90;;;;;;5091744;28;20040;-75
2022/10/11 06:14:30;;;;;;;17.52;3.15;;;8.00;99.90;;;;;;5089938;28;20097;-75
2022/10/11 06:16:56;;;;;;;15.88;3.13;;;8.00;99.90;;;;;;5091311;28;20047;-75
2022/10/11 06:19:21;;;;;;;15.02;2.80;;;8.00;99.90;;;;;;5074244;28;20526;-75
2022/10/11 06:21:47;;;;;;;12.60;2.83;;;8.00;99.90;;;;;;5053900;28;20044;-75
2022/10/11 06:24:13;;;;;;;18.60;3.55;;;8.00;99.90;;;;;;5091559;28;20076;-75
2022/10/11 06:26:39;;;;;;;12.00;3.00;;;8.20;99.90;;;;;;5091335;28;20038;-75
2022/10/11 06:29:05;;;;;;;17.58;3.15;;;9.00;99.90;;;;;;5094117;28;20370;-75
2022/10/11 06:31:32;;;;;;;8.55;2.92;;;8.10;99.90;;;;;;5077190;28;20127;-75
2022/10/11 06:34:00;;;;;;;12.18;3.08;;;7.30;99.90;;;;;;5091817;28;20139;-75
2022/10/11 06:36:26;;;;;;;12.95;3.10;;;8.30;99.90;;;;;;5091636;28;20079;-75
2022/10/11 06:38:53;;;;;;;10.23;3.17;;;8.30;99.90;;;;;;5073438;28;20485;-75
2022/10/11 06:41:22;;;;;;;17.13;3.50;;;8.30;99.90;;;;;;5079907;28;20056;-75
2022/10/11 06:43:51;;;;;;;14.50;3.30;;;8.40;99.90;;;;;;5111918;28;20438;-75
2022/10/11 06:46:18;;;;;;;16.10;2.97;;;8.40;99.90;;;;;;5093243;28;20051;-76
2022/10/11 06:48:46;;;;;;;14.60;3.03;;;9.70;99.90;;;;;;5075996;28;20130;-76
2022/10/11 06:51:14;;;;;;;16.02;2.85;;;9.30;99.90;;;;;;5080011;28;20044;-76
2022/10/11 06:53:40;;;;;;;12.48;3.03;;;9.10;99.90;;;;;;5091943;28;20390;-76
2022/10/11 06:56:08;;;;;;;9.90;2.72;;;9.20;99.90;;;;;;5073581;28;20051;-76
2022/10/11 06:58:34;;;;;;;8.30;2.30;;;9.20;99.90;;;;;;5091732;28;20142;-76
2022/10/11 07:01:01;;;;;;;11.48;3.22;;;9.30;99.90;;;;;;5091150;28;20119;-76
2022/10/11 07:03:28;;;;;;;14.65;3.08;;;9.40;99.90;;;;;;5075638;28;20036;-76
2022/10/11 07:06:00;;;;;;;12.48;2.90;;;9.50;99.90;;;;;;5099377;28;20054;-75
2022/10/11 07:08:26;;;;;;;12.15;3.30;;;9.40;99.90;;;;;;5110465;28;20123;-75
2022/10/11 07:10:51;;;;;;;10.45;2.90;;;9.40;99.90;;;;;;5093409;28;20079;-76
2022/10/11 07:13:17;;;;;;;13.77;3.00;;;9.40;99.90;;;;;;5111921;28;20408;-76
2022/10/11 07:15:42;;;;;;;13.77;3.40;;;9.40;99.90;;;;;;5093351;28;20059;-76
2022/10/11 07:18:08;;;;;;;11.15;2.95;;;9.60;99.90;;;;;;5093597;28;20078;-76
2022/10/11 07:20:34;;;;;;;14.10;3.40;;;9.40;99.90;;;;;;5091262;28;20113;-76
2022/10/11 07:23:00;;;;;;;15.82;3.25;;;10.50;99.90;;;;;;5105190;28;20105;-76
2022/10/11 07:25:26;;;;;;;14.27;3.47;;;9.50;99.90;;;;;;5083512;28;20477;-76
2022/10/11 07:27:51;;;;;;;9.45;2.67;;;9.80;99.90;;;;;;5095073;28;20071;-76
2022/10/11 07:30:17;;;;;;;12.75;3.08;;;10.10;99.90;;;;;;5094418;28;20425;-76
2022/10/11 07:32:43;;;;;;;13.10;3.13;;;10.20;99.90;;;;;;5075811;28;20043;-77
2022/10/11 07:35:08;;;;;;;16.55;3.60;;;10.20;99.90;;;;;;5095062;28;20152;-77
2022/10/11 07:37:34;;;;;;;11.27;2.90;;;10.20;99.90;;;;;;5076260;28;20063;-77
2022/10/11 07:39:59;;;;;;;11.98;3.20;;;11.10;99.90;;;;;;5096135;28;20051;-77
2022/10/11 07:42:25;;;;;;;13.73;3.72;;;12.10;99.90;;;;;;5094741;28;20040;-76
2022/10/11 07:44:51;;;;;;;17.02;4.82;;;;;;;;;;5094927;28;20050;-76
2022/10/11 07:47:17;;;;;;;11.68;3.90;;;;;;;;;;5076188;28;20056;-77
2022/10/11 07:49:43;;;;;;;13.25;3.53;;;;;;;;;;5076702;28;20253;-76
2022/10/11 07:52:09;;;;;;;12.65;4.05;;;;;;;;;;5075946;28;20488;-76
2022/10/11 07:54:35;;;;;;;12.38;3.38;;;;;;;;;;5095702;28;20841;-76
2022/10/11 07:57:01;;;;;;;10.27;2.80;;;;;;;;;;5076074;28;20102;-76
2022/10/11 07:59:27;;;;;;;10.15;3.00;;;;;;;;;;5104734;28;20553;-77
2022/10/11 08:01:53;;;;;;;12.07;2.70;;;;;;;;;;5110156;28;20052;-77
2022/10/11 08:04:20;;;;;;;12.95;2.70;;;;;;;;;;5114785;28;20088;-76
2022/10/11 08:06:46;;;;;;;10.75;2.58;;;;;;;;;;5112110;28;20048;-77
2022/10/11 08:09:12;;;;;;;10.57;2.72;;;;;;;;;;5095127;28;20518;-77
2022/10/11 08:11:38;;;;;;;8.18;2.58;;;;;;;;;;5075845;28;20496;-77
2022/10/11 08:14:07;;;;;;;11.32;3.05;;;;;;;;;;5059691;28;20040;-77
2022/10/11 08:16:34;;;;;;;15.30;3.78;;;;;;;;;;5059384;28;20062;-78
2022/10/11 08:19:01;;;;;;;16.52;3.33;;;;;;;;;;5076311;28;20397;-79
2022/10/11 08:21:28;;;;;;;17.70;4.60;;;;;;;;;;5075698;28;20059;-79
2022/10/11 08:23:54;;;;;;;14.18;3.10;;;;;;;;;;5075747;28;20174;-79
2022/10/11 08:26:20;;;;;;;13.52;3.08;;;;;;;;;;5075977;28;20040;-78
2022/10/11 08:28:46;;;;;;;13.63;2.92;;;;;;;;;;5094357;28;20053;-78
2022/10/11 08:31:14;;;;;;;11.10;3.00;;;;;;;;;;5084927;28;20047;-79
2022/10/11 08:33:40;;;;;;;14.30;3.10;;;;;;;;;;5098635;28;20063;-79
2022/10/11 08:36:06;;;;;;;12.75;2.90;;;;;;;;;;5079971;28;20113;-79
2022/10/11 08:38:32;;;;;;;10.70;2.67;;;;;;;;;;5095905;28;20046;-79
2022/10/11 08:40:59;;;;;;;12.65;2.83;;;;;;;;;;5113978;28;20040;-79
2022/10/11 08:43:32;;;;;;;12.95;3.22;;;;;;;;;;5114019;28;20039;-80
2022/10/11 08:46:00;;;;;;;9.77;2.35;;;;;;;;;;5109281;28;20055;-79
2022/10/11 08:48:32;;;;;;;12.02;2.78;;;;;;;;;;5095748;28;20051;-80
2022/10/11 08:50:58;;;;;;;9.68;2.78;;;;;;;;;;5087084;28;20032;-79
2022/10/11 08:53:36;;;;;;;11.05;2.50;;;;;;;;;;5073467;28;20040;-78
2022/10/11 08:56:03;;;;;;;12.80;2.63;;;;;;;;;;5090746;28;20039;-79
2022/10/11 08:58:41;;;;;;;13.30;3.15;;;;;;;;;;5106322;28;20081;-80
2022/10/11 09:01:13;;;;;;;10.20;2.65;;;;;;;;;;5077803;28;20487;-79
2022/10/11 09:03:41;;;;;;;11.55;2.90;;;;;;;;;;5082334;28;20101;-80
2022/10/11 09:06:23;;;;;;;13.73;2.80;;;;;;;;;;5104361;28;20045;-79
2022/10/11 09:08:54;;;;;;;11.48;3.00;;;;;;;;;;5095265;28;20504;-80
2022/10/11 09:11:24;;;;;;;12.02;2.78;;;;;;;;;;5042987;28;20040;-79
2022/10/11 09:14:08;;;;;;;13.15;2.90;;;;;;;;;;5093364;28;20112;-79
2022/10/11 09:16:35;;;;;;;7.50;2.20;;;;;;;;;;5103038;28;20035;-79
2022/10/11 09:19:21;;;;;;;14.45;3.28;;;;;;;;;;5090875;28;20061;-79
2022/10/11 09:22:19;;;;;;;11.70;2.72;;;;;;;;;;5107728;28;20127;-79
2022/10/11 09:24:57;;;;;;;13.23;2.40;;;;;;;;;;5048215;28;20131;-78
2022/10/11 09:27:31;;;;;;;12.55;3.00;;;;;;;;;;5089467;28;20530;-79
2022/10/11 09:30:01;;;;;;;12.45;3.13;;;;;;;;;;5094961;28;20047;-78
2022/10/11 09:32:31;;;;;;;11.10;2.58;;;;;;;;;;5110994;28;20138;-78
2022/10/11 09:35:08;;;;;;;13.30;2.85;;;;;;;;;;5113028;28;20496;-78
2022/10/11 09:37:42;;;;;;;12.93;2.42;;;;;;;;;;5094715;28;20088;-78
2022/10/11 09:40:31;;;;;;;15.30;2.72;;;13.30;99.90;;;;;;5077313;28;20051;-78
2022/10/11 09:42:58;;;;;;;9.65;2.40;;;20.70;99.90;;;;;;5112284;28;20035;-79
2022/10/11 09:45:24;;;;;;;12.65;2.60;;;20.50;99.90;;;;;;5093081;28;20148;-79
2022/10/11 09:47:53;;;;;;;13.65;2.70;;;20.50;99.90;;;;;;5109546;28;20043;-78
2022/10/11 09:50:22;;;;;;;10.10;2.67;;;20.70;99.90;;;;;;5078029;28;20492;-79
2022/10/11 09:52:50;;;;;;;10.25;2.42;;;21.00;99.90;;;;;;5112645;28;20043;-79
2022/10/11 09:55:37;;;;;;;11.68;2.95;;;21.40;99.90;;;;;;5113048;28;20396;-79
2022/10/11 09:58:04;;;;;;;10.13;2.60;;;21.70;99.90;;;;;;5094512;28;20438;-79
2022/10/11 10:00:32;;;;;;;11.13;2.50;;;21.90;99.90;;;;;;5075415;28;20047;-80
2022/10/11 10:03:01;;;;;;;15.07;2.60;;;21.80;99.90;;;;;;5056823;28;20123;-79
2022/10/11 10:05:28;;;;;;;10.18;2.75;;;21.90;99.90;;;;;;5056521;28;20036;-80
2022/10/11 10:08:09;;;;;;;9.60;2.33;;;22.10;99.90;;;;;;5105776;28;20396;-79
2022/10/11 10:10:41;;;;;;;12.00;2.40;;;22.40;99.40;;;;;;5094199;28;20130;-80
2022/10/11 10:13:24;;;;;;;13.95;2.40;;;22.20;99.60;;;;;;5090417;28;20047;-80
2022/10/11 10:15:55;;;;;;;10.98;2.58;;;22.40;99.10;;;;;;5074210;28;20044;-80
2022/10/11 10:18:27;;;;;;;10.48;2.25;;;22.80;98.90;;;;;;5092312;28;20127;-80
2022/10/11 10:20:56;;;;;;;9.55;2.20;;;23.00;98.30;;;;;;5074095;28;20066;-79
2022/10/11 10:23:30;;;;;;;12.07;2.40;;;22.60;98.20;;;;;;5092113;28;20047;-79
2022/10/11 10:26:29;;;;;;;11.95;2.40;;;22.10;98.50;;;;;;5092039;28;20039;-79
2022/10/11 10:28:57;;;;;;;10.00;2.67;;;21.50;98.80;;;;;;5036539;28;20457;-79
2022/10/11 10:31:28;;;;;;;11.07;2.30;;;21.40;99.00;;;;;;5072510;28;20048;-79
2022/10/11 10:33:56;;;;;;;16.10;2.78;;;21.60;99.40;;;;;;5073543;28;20139;-80
2022/10/11 10:36:52;;;;;;;12.90;2.47;;;22.20;98.80;;;;;;5091386;28;20056;-80
2022/10/11 10:39:38;;;;;;;12.73;2.53;;;22.20;99.10;;;;;;5089707;28;20091;-80
2022/10/11 10:42:15;;;;;;;10.82;2.17;;;22.30;98.70;;;;;;5072744;28;20044;-80
2022/10/11 10:44:41;;;;;;;7.75;2.25;;;23.00;96.80;;;;;;5092141;28;20051;-80
2022/10/11 10:47:34;;;;;;;12.10;2.58;;;23.40;96.10;;;;;;5092012;28;20036;-80
2022/10/11 10:50:15;;;;;;;9.43;2.40;;;23.50;95.60;;;;;;5073805;28;20145;-80
2022/10/11 10:52:54;;;;;;;9.40;2.50;;;23.50;95.60;;;;;;5074031;28;20115;-80
2022/10/11 10:55:32;;;;;;;10.63;2.55;;;23.80;95.60;;;;;;5074964;28;20044;-79
2022/10/11 10:58:19;;;;;;;8.43;2.15;;;24.30;95.10;;;;;;5073771;28;20055;-79
2022/10/11 11:00:50;;;;;;;8.82;2.60;;;24.90;94.50;;;;;;5094860;28;20092;-79
2022/10/11 11:03:26;;;;;;;10.38;2.63;;;25.20;94.00;;;;;;5095219;28;20055;-81
2022/10/11 11:06:11;;;;;;;12.65;2.20;;;25.10;93.60;;;;;;5095527;28;20051;-80
2022/10/11 11:09:05;;;;;;;9.32;2.33;;;25.30;92.40;;;;;;5095440;28;20032;-80
2022/10/11 11:11:49;;;;;;;7.90;2.03;;;25.50;91.70;;;;;;5110809;28;20047;-80
2022/10/11 11:14:42;;;;;;;9.48;2.10;;;25.10;90.80;;;;;;5113310;28;20079;-81
2022/10/11 11:17:38;;;;;;;8.35;2.28;;;24.40;91.80;;;;;;5114680;28;20097;-81
2022/10/11 11:20:16;;;;;;;8.57;2.22;;;23.70;91.70;;;;;;5110314;28;20051;-83
2022/10/11 11:22:49;;;;;;;11.90;2.40;;;;;;;;;;5101387;28;20050;-82
2022/10/11 11:25:22;;;;;;;9.18;2.45;;;;;;;;;;5112339;28;20035;-81
2022/10/11 11:27:55;;;;;;;8.63;2.30;;;;;;;;;;5077064;28;20332;-81
2022/10/11 11:30:23;;;;;;;9.27;2.28;;;;;;;;;;5090576;28;20131;-81
2022/10/11 11:33:07;;;;;;;10.13;2.58;;;;;;;;;;5093238;28;20040;-80
2022/10/11 11:35:37;;;;;;;9.75;2.17;;;;;;;;;;5092356;28;20122;-81
2022/10/11 11:38:10;;;;;;;9.13;2.40;;;;;;;;;;5092093;28;20044;-81
2022/10/11 11:40:39;;;;;;;12.93;2.67;;;;;;;;;;5093925;28;20031;-81
2022/10/11 11:43:16;;;;;;;11.52;2.42;;;;;;;;;;5111938;28;20046;-81
2022/10/11 11:45:54;;;;;;;11.73;2.40;;;;;;;;;;5093568;28;20108;-83
2022/10/11 11:48:23;;;;;;;9.15;2.22;;;;;;;;;;5095099;28;20127;-82
2022/10/11 11:50:58;;;;;;;11.25;2.15;;;;;;;;;;5095401;28;20411;-82
2022/10/11 11:53:34;;;;;;;12.50;2.40;;;;;;;;;;5107518;28;20051;-82
2022/10/11 11:56:08;;;;;;;12.65;2.30;;;;;;;;;;5093251;28;20478;-82
2022/10/11 11:58:37;;;;;;;11.93;2.20;;;;;;;;;;5087921;27;20047;-77
2022/10/11 12:01:21;;;;;;;11.68;2.38;;;;;;;;;;5110639;28;20078;-77
2022/10/11 12:03:50;;;;;;;9.93;2.30;;;;;;;;;;5096760;28;20051;-78
2022/10/11 12:06:18;;;;;;;12.82;2.53;;;;;;;;;;5113356;28;20484;-77
2022/10/11 12:08:47;;;;;;;8.25;2.13;;;;;;;;;;5113400;28;20079;-78
2022/10/11 12:11:21;;;;;;;10.95;1.95;;;;;;;;;;5096467;28;20042;-78
2022/10/11 12:13:48;;;;;;;8.15;2.40;;;;;;;;;;5094264;28;20040;-77
2022/10/11 12:16:15;;;;;;;10.98;2.13;;;;;;;;;;5096199;28;20036;-78
2022/10/11 12:18:52;;;;;;;10.27;2.25;;;18.00;99.90;;;;;;5095683;28;20059;-78
2022/10/11 12:21:32;;;;;;;12.57;2.38;;;17.70;99.90;;;;;;5111263;28;20051;-78
2022/10/11 12:24:20;;;;;;;12.32;2.45;;;17.60;99.90;;;;;;5095900;28;20040;-77
2022/10/11 12:26:47;;;;;;;9.93;2.22;;;17.60;99.90;;;;;;5114063;28;20437;-78
2022/10/11 12:29:19;;;;;;;10.32;2.80;;;17.60;99.90;;;;;;5107863;28;20096;-78
2022/10/11 12:31:47;;;;;;;9.05;2.10;;;;;;;;;;5111256;28;20054;-77
2022/10/11 12:34:39;;;;;;;9.85;2.30;;;;;;;;;;5095801;28;20447;-76
2022/10/11 12:37:24;;;;;;;12.25;2.30;;;;;;;;;;5090257;28;20191;-77
2022/10/11 12:39:54;;;;;;;8.85;2.15;;;;;;;;;;5094992;28;20035;-77
2022/10/11 12:42:20;;;;;;;11.70;2.13;;;;;;;;;;5113512;28;20488;-77
2022/10/11 12:45:06;;;;;;;8.85;2.10;;;;;;;;;;5114208;28;20040;-77
2022/10/11 12:47:36;;;;;;;11.75;2.20;;;;;;;;;;5095676;28;20490;-80
2022/10/11 12:50:11;;;;;;;10.50;2.22;;;;;;;;;;5111715;28;20076;-78
2022/10/11 12:52:40;;;;;;;9.98;2.40;;;;;;;;;;5093059;28;20040;-78
2022/10/11 12:55:06;;;;;;;9.75;2.20;;;;;;;;;;5092651;28;20105;-77
2022/10/11 12:57:49;;;;;;;10.90;2.13;;;;;;;;;;5092828;28;20036;-77
2022/10/11 13:00:21;;;;;;;11.82;2.78;;;;;;;;;;5091441;28;20448;-77
2022/10/11 13:02:47;;;;;;;10.45;2.20;;;;;;;;;;5078465;28;20100;-77
2022/10/11 13:05:16;;;;;;;9.77;2.22;;;;;;;;;;5073039;28;20504;-78
2022/10/11 13:07:43;;;;;;;8.20;2.15;;;;;;;;;;5075218;28;20139;-77
2022/10/11 13:10:14;;;;;;;11.20;2.10;;;;;;;;;;5100772;28;20048;-78
2022/10/11 13:12:41;;;;;;;9.93;2.30;;;;;;;;;;5113642;28;20040;-78
2022/10/11 13:15:13;;;;;;;8.48;1.90;;;;;;;;;;5086503;28;20093;-82
2022/10/11 13:17:39;;;;;;;10.10;1.95;;;;;;;;;;5072291;28;20318;-83
2022/10/11 13:20:17;;;;;;;10.75;1.92;;;;;;;;;;5072493;28;20055;-83
2022/10/11 13:22:47;;;;;;;10.77;1.88;;;;;;;;;;5071056;28;20048;-83
2022/10/11 13:25:36;;;;;;;7.50;1.80;;;;;;;;;;5072040;28;20048;-83
2022/10/11 13:28:02;;;;;;;10.55;1.85;;;;;;;;;;5093638;28;20114;-77
2022/10/11 13:30:33;;;;;;;9.48;1.98;;;;;;;;;;5095924;28;20090;-77